createdAt,value
2023-01-03T00:02:10.679Z,1.00
2023-01-03T00:04:37.488Z,1.23
2023-01-03T00:07:04.862Z,1.25
2023-01-03T00:09:31.405Z,1.25
2023-01-03T00:11:57.952Z,0.70
2023-01-03T00:14:27.449Z,0.80
2023-01-03T00:16:57.078Z,1.02
2023-01-03T00:19:26.339Z,1.30
2023-01-03T00:21:53.466Z,0.90
2023-01-03T00:24:20.016Z,1.02
2023-01-03T00:26:47.298Z,0.80
2023-01-03T00:29:14.511Z,1.02
2023-01-03T00:31:41.945Z,0.93
2023-01-03T00:34:09.211Z,0.95
2023-01-03T00:36:37.080Z,1.30
2023-01-03T00:41:31.451Z,0.70
2023-01-03T00:43:58.300Z,0.80
2023-01-03T00:46:25.346Z,0.90
2023-01-03T00:48:52.000Z,1.27
2023-01-03T00:51:23.983Z,1.70
2023-01-03T00:53:52.380Z,1.30
2023-01-03T00:56:21.014Z,0.90
2023-01-03T00:58:47.797Z,0.90
2023-01-03T01:01:21.382Z,1.83
2023-01-03T01:03:51.450Z,1.08
2023-01-03T01:06:25.057Z,1.42
2023-01-03T01:08:54.216Z,1.10
2023-01-03T01:11:21.609Z,1.13
2023-01-03T01:13:49.285Z,1.02
2023-01-03T01:16:19.059Z,0.90
2023-01-03T01:18:47.959Z,1.13
2023-01-03T01:21:24.347Z,0.90
2023-01-03T01:23:51.888Z,0.98
2023-01-03T01:26:21.187Z,0.95
2023-01-03T01:28:48.896Z,0.80
2023-01-03T01:31:18.684Z,1.20
2023-01-03T01:33:45.670Z,0.90
2023-01-03T01:36:21.270Z,1.13
2023-01-03T01:38:52.628Z,1.17
2023-01-03T01:41:19.236Z,1.75
2023-01-03T01:43:58.625Z,1.23
2023-01-03T01:46:31.448Z,1.48
2023-01-03T01:49:04.212Z,1.35
2023-01-03T01:51:35.900Z,0.82
2023-01-03T01:54:06.336Z,0.80
2023-01-03T01:56:44.723Z,1.00
2023-01-03T01:59:12.268Z,1.30
2023-01-03T02:01:41.355Z,0.80
2023-01-03T02:04:13.908Z,1.23
2023-01-03T02:06:40.791Z,1.20
2023-01-03T02:09:07.668Z,0.85
2023-01-03T02:11:45.825Z,1.85
2023-01-03T02:14:29.598Z,0.88
2023-01-03T02:17:28.273Z,0.75
2023-01-03T02:20:21.230Z,0.80
2023-01-03T02:23:16.823Z,1.30
2023-01-03T02:25:58.385Z,2.08
2023-01-03T02:28:46.458Z,1.20
2023-01-03T02:31:18.276Z,0.80
2023-01-03T02:33:59.783Z,1.05
2023-01-03T02:36:46.850Z,1.02
2023-01-03T02:39:30.305Z,1.30
2023-01-03T02:42:00.641Z,0.98
2023-01-03T02:44:34.113Z,1.27
2023-01-03T02:47:06.415Z,1.02
2023-01-03T02:49:40.801Z,0.88
2023-01-03T02:52:12.839Z,8.77
2023-01-03T02:54:48.330Z,24.52
2023-01-03T02:57:20.297Z,11.32
2023-01-03T02:59:53.229Z,8.23
2023-01-03T03:02:24.221Z,6.20
2023-01-03T03:04:54.475Z,2.33
2023-01-03T03:07:26.747Z,1.42
2023-01-03T03:09:53.405Z,1.70
2023-01-03T03:12:23.439Z,1.35
2023-01-03T03:14:54.237Z,0.95
2023-01-03T03:17:24.866Z,1.50
2023-01-03T03:19:56.225Z,1.42
2023-01-03T03:22:43.283Z,1.50
2023-01-03T03:25:16.933Z,2.00
2023-01-03T03:27:47.115Z,1.45
2023-01-03T03:30:17.641Z,0.50
2023-01-03T03:32:47.524Z,0.75
2023-01-03T03:35:16.834Z,0.60
2023-01-03T03:37:48.254Z,0.45
2023-01-03T03:40:14.969Z,0.32
2023-01-03T03:42:51.470Z,0.90
2023-01-03T03:45:33.228Z,0.35
2023-01-03T03:48:17.932Z,0.25
2023-01-03T03:51:00.257Z,0.20
2023-01-03T03:53:33.648Z,0.20
2023-01-03T03:56:07.106Z,0.20
2023-01-03T03:58:39.105Z,0.28
2023-01-03T04:01:07.298Z,0.45
2023-01-03T04:03:35.963Z,0.20
2023-01-03T04:06:09.956Z,0.60
2023-01-03T04:08:36.730Z,0.40
2023-01-03T04:11:03.594Z,0.43
2023-01-03T04:13:36.193Z,0.30
2023-01-03T04:16:03.751Z,0.30
2023-01-03T04:18:30.332Z,0.30
2023-01-03T04:20:56.977Z,0.40
2023-01-03T04:23:24.255Z,0.20
2023-01-03T04:25:51.254Z,0.50
2023-01-03T04:28:18.766Z,0.30
2023-01-03T04:30:46.954Z,0.28
2023-01-03T04:33:13.553Z,0.20
2023-01-03T04:35:40.085Z,0.20
2023-01-03T04:38:07.060Z,0.38
2023-01-03T04:40:35.081Z,0.40
2023-01-03T04:45:28.284Z,0.40
2023-01-03T04:47:54.823Z,0.20
2023-01-03T04:50:21.387Z,0.32
2023-01-03T04:52:47.999Z,0.45
2023-01-03T04:55:14.651Z,0.75
2023-01-03T04:57:41.228Z,0.40
2023-01-03T05:00:08.593Z,0.50
2023-01-03T05:02:35.104Z,0.43
2023-01-03T05:05:01.720Z,0.20
2023-01-03T05:07:28.810Z,0.55
2023-01-03T05:09:55.586Z,0.38
2023-01-03T05:12:22.264Z,0.45
2023-01-03T05:14:48.781Z,0.80
2023-01-03T05:17:15.531Z,0.63
2023-01-03T05:19:45.437Z,0.30
2023-01-03T05:22:12.120Z,0.70
2023-01-03T05:24:38.643Z,0.30
2023-01-03T05:27:06.373Z,0.45
2023-01-03T05:29:35.691Z,0.40
2023-01-03T05:32:02.532Z,0.30
2023-01-03T05:34:29.122Z,0.30
2023-01-03T05:36:56.060Z,0.30
2023-01-03T05:39:22.666Z,0.50
2023-01-03T05:41:49.183Z,0.80
2023-01-03T05:44:15.797Z,0.60
2023-01-03T05:46:42.616Z,0.47
2023-01-03T05:49:09.284Z,0.43
2023-01-03T05:51:35.844Z,0.32
2023-01-03T05:54:02.801Z,0.43
2023-01-03T05:56:31.323Z,0.50
2023-01-03T05:58:58.394Z,1.92
2023-01-03T06:01:25.164Z,2.23
2023-01-03T06:03:52.332Z,3.20
2023-01-03T06:06:18.880Z,1.88
2023-01-03T06:08:45.435Z,1.33
2023-01-03T06:11:14.721Z,1.45
2023-01-03T06:13:41.648Z,1.38
2023-01-03T06:16:11.234Z,1.05
2023-01-03T06:18:37.922Z,0.60
2023-01-03T06:21:05.181Z,0.63
2023-01-03T06:23:32.027Z,1.42
2023-01-03T06:25:58.560Z,0.50
2023-01-03T06:28:25.107Z,0.45
2023-01-03T06:30:51.696Z,0.60
2023-01-03T06:33:18.238Z,0.45
2023-01-03T06:35:44.732Z,0.50
2023-01-03T06:38:11.356Z,0.40
2023-01-03T06:40:43.987Z,0.50
2023-01-03T06:43:12.163Z,0.50
2023-01-03T06:45:38.788Z,0.70
2023-01-03T06:48:06.254Z,0.60
2023-01-03T06:50:32.857Z,0.60
2023-01-03T06:52:59.451Z,1.20
2023-01-03T06:55:25.955Z,0.75
2023-01-03T06:57:52.457Z,0.70
2023-01-03T07:00:19.256Z,0.60
2023-01-03T07:02:45.899Z,0.60
2023-01-03T07:05:12.630Z,0.60
2023-01-03T07:07:39.163Z,0.45
2023-01-03T07:10:05.821Z,0.63
2023-01-03T07:12:32.612Z,0.50
2023-01-03T07:14:59.058Z,1.40
2023-01-03T07:17:25.650Z,1.20
2023-01-03T07:19:52.222Z,1.13
2023-01-03T07:22:18.684Z,1.17
2023-01-03T07:24:45.236Z,1.27
2023-01-03T07:27:11.875Z,1.38
2023-01-03T07:29:38.429Z,1.17
2023-01-03T07:32:05.258Z,1.48
2023-01-03T07:34:31.761Z,1.05
2023-01-03T07:36:58.359Z,1.42
2023-01-03T07:39:24.856Z,1.30
2023-01-03T07:41:51.403Z,1.08
2023-01-03T07:44:18.754Z,1.30
2023-01-03T07:46:45.489Z,1.10
2023-01-03T07:49:12.602Z,1.45
2023-01-03T07:51:39.450Z,2.20
2023-01-03T07:54:06.051Z,3.95
2023-01-03T07:56:32.699Z,3.45
2023-01-03T07:58:59.739Z,3.88
2023-01-03T08:01:26.352Z,3.38
2023-01-03T08:03:53.257Z,3.00
2023-01-03T08:06:23.500Z,1.70
2023-01-03T08:08:50.785Z,1.52
2023-01-03T08:11:17.391Z,1.33
2023-01-03T08:13:44.768Z,0.98
2023-01-03T08:16:16.867Z,1.15
2023-01-03T08:18:43.769Z,1.02
2023-01-03T08:21:14.617Z,1.42
2023-01-03T08:23:42.226Z,0.85
2023-01-03T08:26:13.960Z,0.90
2023-01-03T08:28:42.148Z,1.08
2023-01-03T08:33:57.341Z,1.00
2023-01-03T08:36:28.519Z,0.80
2023-01-03T08:39:00.644Z,0.90
2023-01-03T08:41:31.828Z,0.75
2023-01-03T08:44:01.357Z,1.05
2023-01-03T08:46:29.114Z,0.52
2023-01-03T08:48:56.691Z,0.65
2023-01-03T08:51:23.651Z,0.65
2023-01-03T08:53:50.533Z,0.77
2023-01-03T08:56:19.465Z,0.73
2023-01-03T08:58:46.183Z,0.80
2023-01-03T09:01:12.807Z,1.10
2023-01-03T09:03:39.603Z,0.70
2023-01-03T09:06:06.631Z,1.42
2023-01-03T09:08:34.491Z,1.35
2023-01-03T09:11:07.835Z,0.90
2023-01-03T09:13:35.418Z,1.10
2023-01-03T09:16:04.258Z,0.80
2023-01-03T09:18:31.119Z,1.23
2023-01-03T09:20:57.706Z,0.90
2023-01-03T09:23:24.207Z,0.68
2023-01-03T09:25:50.913Z,1.00
2023-01-03T09:28:17.784Z,0.80
2023-01-03T09:30:44.405Z,0.73
2023-01-03T09:33:10.937Z,1.33
2023-01-03T09:35:37.953Z,1.02
2023-01-03T09:38:04.583Z,0.75
2023-01-03T09:40:33.153Z,0.80
2023-01-03T09:43:04.752Z,0.80
2023-01-03T09:45:34.263Z,0.93
2023-01-03T09:48:03.234Z,1.27
2023-01-03T09:50:57.285Z,0.90
2023-01-03T09:53:30.097Z,0.90
2023-01-03T09:55:59.034Z,1.55
2023-01-03T09:58:25.687Z,1.30
2023-01-03T10:00:55.006Z,1.63
2023-01-03T10:03:27.818Z,1.35
2023-01-03T10:06:02.516Z,2.75
2023-01-03T10:09:01.650Z,1.98
2023-01-03T10:11:46.096Z,1.52
2023-01-03T10:14:33.904Z,1.50
2023-01-03T10:17:30.852Z,1.70
2023-01-03T10:20:19.553Z,1.60
2023-01-03T10:22:48.002Z,1.50
2023-01-03T10:25:18.697Z,2.00
2023-01-03T10:27:55.329Z,1.42
2023-01-03T10:30:37.640Z,1.90
2023-01-03T10:33:19.316Z,1.50
2023-01-03T10:35:45.847Z,1.98
2023-01-03T10:38:15.834Z,1.38
2023-01-03T10:40:46.982Z,1.40
2023-01-03T10:43:27.909Z,1.17
2023-01-03T10:45:57.851Z,1.30
2023-01-03T10:48:26.210Z,1.40
2023-01-03T10:50:52.763Z,1.63
2023-01-03T10:53:22.008Z,0.88
2023-01-03T10:55:53.930Z,1.45
2023-01-03T10:58:35.855Z,2.10
2023-01-03T11:01:24.330Z,1.77
2023-01-03T11:04:09.160Z,1.35
2023-01-03T11:06:35.815Z,1.20
2023-01-03T11:09:05.670Z,1.20
2023-01-03T11:11:40.490Z,1.33
2023-01-03T11:14:24.503Z,1.70
2023-01-03T11:16:57.836Z,1.83
2023-01-03T11:19:30.501Z,2.28
2023-01-03T11:22:47.979Z,1.48
2023-01-03T11:28:21.040Z,1.20
2023-01-03T11:30:58.328Z,1.15
2023-01-03T11:33:43.992Z,1.25
2023-01-03T11:36:56.176Z,1.20
2023-01-03T11:40:02.386Z,1.52
2023-01-03T11:42:47.545Z,2.00
2023-01-03T11:45:48.708Z,0.90
2023-01-03T11:48:34.195Z,0.50
2023-01-03T11:51:14.977Z,1.85
2023-01-03T11:54:02.838Z,1.45
2023-01-03T11:56:36.114Z,5.72
2023-01-03T11:59:16.352Z,7.63
2023-01-03T12:02:10.215Z,3.00
2023-01-03T12:05:04.105Z,3.17
2023-01-03T12:07:49.312Z,2.05
2023-01-03T12:10:24.544Z,1.58
2023-01-03T12:12:58.728Z,1.13
2023-01-03T12:15:35.446Z,1.33
2023-01-03T12:18:15.345Z,1.05
2023-01-03T12:20:47.520Z,1.25
2023-01-03T12:23:26.337Z,1.10
2023-01-03T12:26:02.135Z,1.02
2023-01-03T12:28:38.231Z,0.95
2023-01-03T12:31:32.634Z,1.00
2023-01-03T12:34:24.878Z,1.15
2023-01-03T12:37:08.899Z,1.20
2023-01-03T12:39:35.431Z,1.13
2023-01-03T12:42:04.851Z,0.82
2023-01-03T12:44:37.243Z,1.15
2023-01-03T12:47:19.392Z,1.38
2023-01-03T12:50:16.818Z,0.90
2023-01-03T12:52:49.160Z,1.13
2023-01-03T12:55:25.010Z,1.10
2023-01-03T12:57:57.600Z,1.10
2023-01-03T13:00:37.400Z,1.45
2023-01-03T13:03:51.560Z,1.35
2023-01-03T13:06:25.282Z,1.10
2023-01-03T13:08:57.315Z,1.20
2023-01-03T13:11:42.492Z,1.40
2023-01-03T13:14:23.228Z,1.50
2023-01-03T13:16:52.104Z,1.38
2023-01-03T13:19:21.276Z,1.35
2023-01-03T13:21:53.976Z,1.20
2023-01-03T13:24:39.387Z,1.60
2023-01-03T13:27:17.945Z,1.55
2023-01-03T13:29:57.883Z,0.90
2023-01-03T13:32:36.361Z,1.02
2023-01-03T13:35:04.661Z,1.00
2023-01-03T13:37:44.175Z,1.30
2023-01-03T13:40:18.730Z,1.00
2023-01-03T13:42:45.585Z,1.00
2023-01-03T13:45:15.084Z,1.27
2023-01-03T13:47:47.339Z,1.02
2023-01-03T13:50:26.811Z,1.50
2023-01-03T13:53:09.950Z,1.52
2023-01-03T13:55:49.245Z,1.25
2023-01-03T13:58:42.801Z,0.93
2023-01-03T14:01:28.564Z,1.10
2023-01-03T14:04:05.923Z,0.95
2023-01-03T14:06:51.700Z,0.93
2023-01-03T14:10:00.029Z,1.02
2023-01-03T14:12:41.858Z,0.70
2023-01-03T14:15:25.394Z,0.82
2023-01-03T14:17:56.476Z,1.13
2023-01-03T14:20:35.907Z,1.08
2023-01-03T14:23:31.714Z,1.10
2023-01-03T14:25:54.050Z,1.42
2023-01-03T14:28:26.777Z,1.15
2023-01-03T14:30:56.299Z,1.10
2023-01-03T14:33:29.306Z,1.23
2023-01-03T14:36:03.405Z,1.50
2023-01-03T14:38:32.067Z,0.90
2023-01-03T14:40:59.099Z,1.23
2023-01-03T14:43:29.908Z,1.20
2023-01-03T14:46:00.546Z,1.83
2023-01-03T14:48:27.563Z,1.67
2023-01-03T14:50:55.156Z,1.60
2023-01-03T14:53:22.077Z,1.40
2023-01-03T14:55:52.300Z,1.80
2023-01-03T14:58:32.945Z,0.90
2023-01-03T15:01:05.663Z,1.63
2023-01-03T15:03:52.213Z,1.55
2023-01-03T15:06:30.630Z,1.00
2023-01-03T15:09:00.033Z,0.90
2023-01-03T15:11:32.384Z,2.03
2023-01-03T15:14:05.777Z,1.67
2023-01-03T15:16:34.658Z,2.00
2023-01-03T15:19:08.312Z,1.35
2023-01-03T15:21:35.352Z,1.92
2023-01-03T15:24:02.270Z,1.02
2023-01-03T15:26:40.775Z,1.30
2023-01-03T15:29:15.197Z,1.48
2023-01-03T15:31:57.247Z,1.90
2023-01-03T15:34:41.219Z,1.70
2023-01-03T15:37:18.879Z,1.77
2023-01-03T15:39:49.045Z,1.25
2023-01-03T15:42:44.058Z,1.80
2023-01-03T15:45:24.641Z,1.92
2023-01-03T15:47:56.009Z,1.92
2023-01-03T15:50:25.306Z,1.50
2023-01-03T15:52:51.922Z,3.40
2023-01-03T15:55:18.806Z,4.10
2023-01-03T15:57:51.342Z,3.40
2023-01-03T16:00:21.435Z,5.85
2023-01-03T16:02:48.932Z,8.02
2023-01-03T16:05:22.048Z,11.82
2023-01-03T16:07:50.227Z,9.10
2023-01-03T16:10:16.848Z,7.03
2023-01-03T16:12:43.935Z,5.32
2023-01-03T16:15:20.589Z,3.30
2023-01-03T16:17:47.493Z,3.40
2023-01-03T16:20:16.154Z,2.80
2023-01-03T16:22:57.575Z,4.38
2023-01-03T16:25:26.707Z,3.38
2023-01-03T16:27:53.342Z,3.13
2023-01-03T16:30:19.839Z,2.83
2023-01-03T16:32:46.401Z,2.30
2023-01-03T16:35:18.538Z,1.65
2023-01-03T16:37:45.055Z,1.10
2023-01-03T16:40:19.541Z,2.35
2023-01-03T16:42:46.949Z,5.35
2023-01-03T16:45:13.994Z,3.10
2023-01-03T16:47:42.819Z,2.50
2023-01-03T16:50:16.371Z,2.88
2023-01-03T16:52:54.993Z,1.63
2023-01-03T16:55:27.750Z,1.70
2023-01-03T16:57:55.389Z,1.65
2023-01-03T17:00:31.088Z,1.83
2023-01-03T17:02:58.429Z,2.53
2023-01-03T17:05:26.467Z,3.25
2023-01-03T17:08:01.690Z,4.20
2023-01-03T17:10:39.999Z,3.33
2023-01-03T17:13:12.359Z,1.98
2023-01-03T17:15:40.299Z,2.42
2023-01-03T17:18:17.380Z,1.45
2023-01-03T17:20:43.923Z,1.83
2023-01-03T17:23:11.181Z,2.65
2023-01-03T17:25:40.167Z,1.80
2023-01-03T17:28:10.489Z,1.73
2023-01-03T17:30:37.836Z,1.67
2023-01-03T17:33:04.773Z,1.90
2023-01-03T17:35:31.460Z,1.35
2023-01-03T17:38:24.800Z,1.42
2023-01-03T17:40:47.023Z,1.55
2023-01-03T17:43:18.297Z,2.03
2023-01-03T17:45:45.529Z,1.92
2023-01-03T17:48:12.773Z,3.10
2023-01-03T17:50:41.036Z,2.47
2023-01-03T17:53:11.254Z,2.55
2023-01-03T17:55:37.928Z,2.22
2023-01-03T17:58:04.723Z,2.13
2023-01-03T18:00:32.018Z,2.03
2023-01-03T18:02:59.056Z,2.13
2023-01-03T18:05:27.952Z,1.40
2023-01-03T18:08:00.366Z,1.80
2023-01-03T18:10:46.086Z,2.30
2023-01-03T18:13:22.684Z,1.90
2023-01-03T18:15:49.772Z,1.90
2023-01-03T18:18:19.124Z,1.60
2023-01-03T18:20:45.902Z,2.08
2023-01-03T18:23:31.659Z,1.55
2023-01-03T18:26:01.905Z,1.88
2023-01-03T18:28:28.884Z,1.85
2023-01-03T18:30:57.801Z,2.13
2023-01-03T18:33:25.253Z,2.50
2023-01-03T18:35:52.899Z,2.63
2023-01-03T18:38:22.405Z,2.58
2023-01-03T18:40:48.922Z,1.55
2023-01-03T18:43:19.162Z,2.58
2023-01-03T18:45:45.647Z,2.08
2023-01-03T18:48:17.864Z,2.13
2023-01-03T18:50:49.406Z,1.85
2023-01-03T18:53:22.071Z,2.22
2023-01-03T18:55:49.341Z,2.25
2023-01-03T18:58:36.356Z,2.67
2023-01-03T19:01:03.557Z,2.22
2023-01-03T19:03:32.003Z,2.13
2023-01-03T19:06:00.486Z,2.55
2023-01-03T19:08:30.961Z,2.38
2023-01-03T19:11:11.658Z,2.58
2023-01-03T19:13:41.198Z,1.70
2023-01-03T19:16:07.888Z,1.52
2023-01-03T19:18:34.557Z,2.17
2023-01-03T19:21:01.081Z,2.08
2023-01-03T19:23:27.800Z,1.40
2023-01-03T19:25:54.925Z,1.52
2023-01-03T19:28:25.505Z,1.92
2023-01-03T19:30:52.570Z,2.38
2023-01-03T19:33:19.157Z,2.50
2023-01-03T19:35:46.177Z,3.70
2023-01-03T19:38:12.823Z,3.25
2023-01-03T19:40:43.036Z,2.97
2023-01-03T19:43:20.403Z,2.78
2023-01-03T19:45:47.406Z,2.60
2023-01-03T19:48:19.920Z,3.00
2023-01-03T19:50:47.250Z,3.47
2023-01-03T19:53:13.968Z,2.77
2023-01-03T19:55:44.101Z,2.83
2023-01-03T19:58:32.973Z,2.55
2023-01-03T20:01:00.203Z,3.17
2023-01-03T20:03:30.008Z,5.75
2023-01-03T20:05:57.433Z,5.78
2023-01-03T20:08:27.549Z,6.25
2023-01-03T20:10:54.564Z,10.00
2023-01-03T20:13:26.534Z,5.90
2023-01-03T20:15:55.102Z,4.60
2023-01-03T20:18:32.860Z,3.28
2023-01-03T20:21:04.908Z,4.22
2023-01-03T20:23:36.382Z,3.72
2023-01-03T20:26:03.640Z,3.92
2023-01-03T20:28:30.155Z,4.25
2023-01-03T20:31:00.779Z,5.72
2023-01-03T20:33:28.658Z,4.65
2023-01-03T20:36:22.695Z,4.82
2023-01-03T20:38:49.250Z,5.53
2023-01-03T20:41:17.633Z,4.85
2023-01-03T20:43:45.020Z,4.85
2023-01-03T20:46:16.951Z,4.07
2023-01-03T20:48:44.305Z,4.47
2023-01-03T20:51:13.625Z,4.47
2023-01-03T20:53:43.017Z,3.80
2023-01-03T20:56:13.838Z,4.97
2023-01-03T20:58:40.904Z,4.32
2023-01-03T21:01:09.300Z,4.03
2023-01-03T21:03:37.480Z,3.25
2023-01-03T21:08:40.220Z,3.80
2023-01-03T21:11:06.792Z,5.55
2023-01-03T21:13:33.302Z,6.97
2023-01-03T21:15:59.873Z,5.35
2023-01-03T21:18:26.404Z,6.72
2023-01-03T21:20:52.990Z,7.72
2023-01-03T21:23:22.002Z,7.43
2023-01-03T21:25:49.733Z,5.38
2023-01-03T21:28:16.200Z,4.95
2023-01-03T21:30:42.992Z,4.60
2023-01-03T21:33:16.421Z,5.00
2023-01-03T21:35:42.983Z,4.20
2023-01-03T21:38:10.116Z,5.80
2023-01-03T21:40:36.926Z,4.30
2023-01-03T21:43:04.863Z,4.95
2023-01-03T21:45:44.585Z,6.05
2023-01-03T21:48:14.402Z,10.32
2023-01-03T21:50:46.808Z,8.80
2023-01-03T21:53:15.075Z,16.83
2023-01-03T21:58:12.469Z,22.30
2023-01-03T22:00:39.043Z,16.55
2023-01-03T22:03:05.746Z,10.50
2023-01-03T22:05:32.438Z,8.88
2023-01-03T22:08:00.891Z,8.75
2023-01-03T22:10:28.654Z,7.10
2023-01-03T22:12:58.561Z,5.60
2023-01-03T22:15:25.511Z,5.57
2023-01-03T22:17:52.989Z,4.88
2023-01-03T22:20:23.045Z,4.90
2023-01-03T22:22:49.780Z,3.95
2023-01-03T22:25:20.366Z,4.13
2023-01-03T22:27:47.048Z,4.07
2023-01-03T22:30:19.466Z,4.10
2023-01-03T22:32:46.937Z,3.70
2023-01-03T22:35:15.501Z,3.58
2023-01-03T22:37:42.461Z,4.18
2023-01-03T22:40:13.171Z,6.45
2023-01-03T22:42:39.657Z,6.00
2023-01-03T22:45:07.485Z,5.25
2023-01-03T22:47:37.700Z,5.40
2023-01-03T22:50:06.361Z,5.80
2023-01-03T22:52:33.144Z,5.65
2023-01-03T22:54:59.724Z,5.43
2023-01-03T22:57:26.821Z,5.22
2023-01-03T22:59:53.397Z,6.03
2023-01-03T23:02:26.143Z,5.32
2023-01-03T23:04:54.699Z,5.28
2023-01-03T23:07:21.183Z,4.40
2023-01-03T23:09:47.651Z,4.97
2023-01-03T23:12:14.161Z,7.15
2023-01-03T23:14:40.723Z,9.30
2023-01-03T23:17:07.465Z,9.38
2023-01-03T23:19:34.031Z,10.45
2023-01-03T23:22:00.556Z,9.93
2023-01-03T23:24:27.021Z,6.88
2023-01-03T23:26:53.778Z,5.30
2023-01-03T23:29:20.347Z,4.35
2023-01-03T23:31:46.995Z,5.03
2023-01-03T23:34:13.528Z,5.47
2023-01-03T23:36:40.316Z,4.68
2023-01-03T23:39:06.845Z,4.05
2023-01-03T23:41:33.391Z,4.30
2023-01-03T23:43:59.864Z,3.75
2023-01-03T23:46:26.518Z,3.97
2023-01-03T23:48:58.157Z,3.72
2023-01-03T23:51:25.533Z,4.55
2023-01-03T23:53:53.093Z,3.92
2023-01-03T23:56:21.718Z,4.15
2023-01-03T23:58:48.513Z,4.18
